sensor_id;sensor_type;location;lat;lon;timestamp;pressure;altitude;pressure_sealevel;temperature;humidity
84043;BME280;74129;52.540;13.416;2024-02-28T00:00:12;101151.11;;;4.51;78.86
84043;BME280;74129;52.540;13.416;2024-02-28T00:02:59;101151.79;;;4.48;78.96
84043;BME280;74129;52.540;13.416;2024-02-28T00:05:25;101148.88;;;4.46;78.88
84043;BME280;74129;52.540;13.416;2024-02-28T00:07:52;101147.04;;;4.49;78.64
84043;BME280;74129;52.540;13.416;2024-02-28T00:10:19;101146.89;;;4.53;78.55
84043;BME280;74129;52.540;13.416;2024-02-28T00:12:46;101141.86;;;4.54;78.65
84043;BME280;74129;52.540;13.416;2024-02-28T00:15:12;101141.48;;;4.57;78.68
84043;BME280;74129;52.540;13.416;2024-02-28T00:17:39;101139.30;;;4.55;78.65
84043;BME280;74129;52.540;13.416;2024-02-28T00:20:08;101139.45;;;4.46;78.81
84043;BME280;74129;52.540;13.416;2024-02-28T00:22:36;101141.04;;;4.43;79.05
84043;BME280;74129;52.540;13.416;2024-02-28T00:25:05;101139.33;;;4.43;79.09
84043;BME280;74129;52.540;13.416;2024-02-28T00:27:33;101138.86;;;4.42;79.04
84043;BME280;74129;52.540;13.416;2024-02-28T00:30:00;101145.05;;;4.39;79.29
84043;BME280;74129;52.540;13.416;2024-02-28T00:32:27;101141.96;;;4.36;79.17
84043;BME280;74129;52.540;13.416;2024-02-28T00:34:53;101142.41;;;4.32;79.18
84043;BME280;74129;52.540;13.416;2024-02-28T00:37:20;101142.11;;;4.31;79.18
84043;BME280;74129;52.540;13.416;2024-02-28T00:39:46;101147.67;;;4.29;79.45
84043;BME280;74129;52.540;13.416;2024-02-28T00:42:12;101143.34;;;4.28;79.50
84043;BME280;74129;52.540;13.416;2024-02-28T00:44:39;101145.60;;;4.34;79.33
84043;BME280;74129;52.540;13.416;2024-02-28T00:47:09;101144.71;;;4.40;79.13
84043;BME280;74129;52.540;13.416;2024-02-28T00:49:35;101146.86;;;4.45;78.81
84043;BME280;74129;52.540;13.416;2024-02-28T00:52:02;101143.45;;;4.41;78.90
84043;BME280;74129;52.540;13.416;2024-02-28T00:54:28;101143.75;;;4.34;78.68
84043;BME280;74129;52.540;13.416;2024-02-28T00:56:55;101143.83;;;4.31;78.83
84043;BME280;74129;52.540;13.416;2024-02-28T00:59:21;101139.21;;;4.33;78.66
84043;BME280;74129;52.540;13.416;2024-02-28T01:01:48;101141.10;;;4.35;78.64
84043;BME280;74129;52.540;13.416;2024-02-28T01:04:14;101139.91;;;4.39;78.66
84043;BME280;74129;52.540;13.416;2024-02-28T01:06:42;101144.60;;;4.42;78.66
84043;BME280;74129;52.540;13.416;2024-02-28T01:09:08;101147.98;;;4.39;78.67
84043;BME280;74129;52.540;13.416;2024-02-28T01:11:34;101145.80;;;4.35;78.47
84043;BME280;74129;52.540;13.416;2024-02-28T01:14:01;101148.80;;;4.36;78.62
84043;BME280;74129;52.540;13.416;2024-02-28T01:16:27;101150.77;;;4.35;78.50
84043;BME280;74129;52.540;13.416;2024-02-28T01:18:54;101154.29;;;4.36;78.32
84043;BME280;74129;52.540;13.416;2024-02-28T01:21:20;101156.13;;;4.42;78.44
84043;BME280;74129;52.540;13.416;2024-02-28T01:23:46;101159.56;;;4.47;78.19
84043;BME280;74129;52.540;13.416;2024-02-28T01:26:13;101158.92;;;4.51;78.20
84043;BME280;74129;52.540;13.416;2024-02-28T01:28:39;101157.50;;;4.54;78.03
84043;BME280;74129;52.540;13.416;2024-02-28T01:31:06;101159.15;;;4.58;77.72
84043;BME280;74129;52.540;13.416;2024-02-28T01:33:33;101160.14;;;4.60;77.60
84043;BME280;74129;52.540;13.416;2024-02-28T01:36:01;101153.91;;;4.61;77.82
84043;BME280;74129;52.540;13.416;2024-02-28T01:38:27;101143.25;;;4.59;77.65
84043;BME280;74129;52.540;13.416;2024-02-28T01:40:53;101143.90;;;4.58;77.73
84043;BME280;74129;52.540;13.416;2024-02-28T01:43:20;101140.71;;;4.59;77.82
84043;BME280;74129;52.540;13.416;2024-02-28T01:45:46;101140.87;;;4.56;77.63
84043;BME280;74129;52.540;13.416;2024-02-28T01:48:12;101142.41;;;4.53;77.83
84043;BME280;74129;52.540;13.416;2024-02-28T01:50:41;101148.65;;;4.53;77.77
84043;BME280;74129;52.540;13.416;2024-02-28T01:53:09;101145.70;;;4.51;77.81
84043;BME280;74129;52.540;13.416;2024-02-28T01:55:38;101144.83;;;4.49;77.80
84043;BME280;74129;52.540;13.416;2024-02-28T01:58:05;101145.41;;;4.50;77.95
84043;BME280;74129;52.540;13.416;2024-02-28T02:00:33;101144.80;;;4.57;77.93
84043;BME280;74129;52.540;13.416;2024-02-28T02:03:01;101143.18;;;4.63;77.68
84043;BME280;74129;52.540;13.416;2024-02-28T02:05:30;101143.77;;;4.71;77.65
84043;BME280;74129;52.540;13.416;2024-02-28T02:07:57;101146.15;;;4.77;77.59
84043;BME280;74129;52.540;13.416;2024-02-28T02:10:28;101137.67;;;4.78;77.28
84043;BME280;74129;52.540;13.416;2024-02-28T02:12:54;101135.04;;;4.81;77.00
84043;BME280;74129;52.540;13.416;2024-02-28T02:15:21;101136.20;;;4.78;77.06
84043;BME280;74129;52.540;13.416;2024-02-28T02:17:55;101132.42;;;4.77;77.33
84043;BME280;74129;52.540;13.416;2024-02-28T02:20:22;101136.12;;;4.79;77.11
84043;BME280;74129;52.540;13.416;2024-02-28T02:22:49;101137.58;;;4.72;76.80
84043;BME280;74129;52.540;13.416;2024-02-28T02:25:15;101143.66;;;4.61;77.18
84043;BME280;74129;52.540;13.416;2024-02-28T02:27:41;101145.95;;;4.58;77.31
84043;BME280;74129;52.540;13.416;2024-02-28T02:30:08;101148.92;;;4.52;77.27
84043;BME280;74129;52.540;13.416;2024-02-28T02:32:34;101153.55;;;4.49;77.31
84043;BME280;74129;52.540;13.416;2024-02-28T02:35:01;101158.60;;;4.49;77.21
84043;BME280;74129;52.540;13.416;2024-02-28T02:37:29;101161.75;;;4.49;77.27
84043;BME280;74129;52.540;13.416;2024-02-28T02:39:55;101161.71;;;4.51;77.41
84043;BME280;74129;52.540;13.416;2024-02-28T02:42:22;101168.39;;;4.52;77.00
84043;BME280;74129;52.540;13.416;2024-02-28T02:44:48;101168.77;;;4.52;76.89
84043;BME280;74129;52.540;13.416;2024-02-28T02:47:14;101171.47;;;4.51;76.82
84043;BME280;74129;52.540;13.416;2024-02-28T02:49:41;101176.84;;;4.49;76.84
84043;BME280;74129;52.540;13.416;2024-02-28T02:52:07;101180.13;;;4.43;76.90
84043;BME280;74129;52.540;13.416;2024-02-28T02:54:33;101188.19;;;4.37;76.78
84043;BME280;74129;52.540;13.416;2024-02-28T02:57:00;101192.87;;;4.33;76.86
84043;BME280;74129;52.540;13.416;2024-02-28T02:59:26;101189.06;;;4.29;76.86
84043;BME280;74129;52.540;13.416;2024-02-28T03:01:52;101187.67;;;4.21;77.11
84043;BME280;74129;52.540;13.416;2024-02-28T03:04:19;101182.81;;;4.18;77.16
84043;BME280;74129;52.540;13.416;2024-02-28T03:06:45;101188.81;;;4.11;77.28
84043;BME280;74129;52.540;13.416;2024-02-28T03:09:11;101189.08;;;4.09;77.31
84043;BME280;74129;52.540;13.416;2024-02-28T03:11:38;101194.14;;;4.03;77.68
84043;BME280;74129;52.540;13.416;2024-02-28T03:14:04;101195.13;;;4.06;77.59
84043;BME280;74129;52.540;13.416;2024-02-28T03:16:31;101188.38;;;4.13;77.49
84043;BME280;74129;52.540;13.416;2024-02-28T03:18:57;101195.63;;;4.16;77.32
84043;BME280;74129;52.540;13.416;2024-02-28T03:21:23;101191.92;;;4.19;77.23
84043;BME280;74129;52.540;13.416;2024-02-28T03:23:50;101193.30;;;4.26;77.26
84043;BME280;74129;52.540;13.416;2024-02-28T03:26:16;101192.01;;;4.30;77.37
84043;BME280;74129;52.540;13.416;2024-02-28T03:28:42;101191.84;;;4.30;77.28
84043;BME280;74129;52.540;13.416;2024-02-28T03:31:09;101194.59;;;4.30;77.19
84043;BME280;74129;52.540;13.416;2024-02-28T03:33:35;101193.30;;;4.34;77.41
84043;BME280;74129;52.540;13.416;2024-02-28T03:36:01;101192.77;;;4.35;77.08
84043;BME280;74129;52.540;13.416;2024-02-28T03:38:28;101197.25;;;4.38;76.87
84043;BME280;74129;52.540;13.416;2024-02-28T03:40:54;101196.06;;;4.37;76.59
84043;BME280;74129;52.540;13.416;2024-02-28T03:43:21;101192.23;;;4.32;76.71
84043;BME280;74129;52.540;13.416;2024-02-28T03:45:48;101196.45;;;4.32;76.54
84043;BME280;74129;52.540;13.416;2024-02-28T03:48:15;101194.59;;;4.30;76.68
84043;BME280;74129;52.540;13.416;2024-02-28T03:50:41;101193.11;;;4.29;76.69
84043;BME280;74129;52.540;13.416;2024-02-28T03:53:08;101193.80;;;4.27;76.56
84043;BME280;74129;52.540;13.416;2024-02-28T03:55:34;101195.11;;;4.26;76.60
84043;BME280;74129;52.540;13.416;2024-02-28T03:58:01;101194.94;;;4.23;76.35
84043;BME280;74129;52.540;13.416;2024-02-28T04:00:28;101195.19;;;4.18;76.40
84043;BME280;74129;52.540;13.416;2024-02-28T04:02:55;101193.97;;;4.18;76.25
84043;BME280;74129;52.540;13.416;2024-02-28T04:05:21;101196.30;;;4.19;76.26
84043;BME280;74129;52.540;13.416;2024-02-28T04:07:47;101199.86;;;4.20;76.25
84043;BME280;74129;52.540;13.416;2024-02-28T04:10:14;101200.98;;;4.22;75.94
84043;BME280;74129;52.540;13.416;2024-02-28T04:12:43;101199.11;;;4.17;76.14
84043;BME280;74129;52.540;13.416;2024-02-28T04:15:11;101203.72;;;4.10;75.78
84043;BME280;74129;52.540;13.416;2024-02-28T04:17:39;101203.73;;;4.05;75.98
84043;BME280;74129;52.540;13.416;2024-02-28T04:20:10;101209.73;;;4.01;76.29
84043;BME280;74129;52.540;13.416;2024-02-28T04:22:37;101211.18;;;3.97;76.12
84043;BME280;74129;52.540;13.416;2024-02-28T04:25:05;101209.56;;;3.92;76.51
84043;BME280;74129;52.540;13.416;2024-02-28T04:27:31;101206.79;;;3.89;76.61
84043;BME280;74129;52.540;13.416;2024-02-28T04:29:58;101206.40;;;3.83;76.92
84043;BME280;74129;52.540;13.416;2024-02-28T04:32:24;101208.34;;;3.82;76.99
84043;BME280;74129;52.540;13.416;2024-02-28T04:34:50;101210.05;;;3.85;76.82
84043;BME280;74129;52.540;13.416;2024-02-28T04:37:17;101214.16;;;3.88;77.17
84043;BME280;74129;52.540;13.416;2024-02-28T04:39:44;101218.88;;;3.90;77.39
84043;BME280;74129;52.540;13.416;2024-02-28T04:42:10;101223.34;;;3.91;77.27
84043;BME280;74129;52.540;13.416;2024-02-28T04:44:36;101231.88;;;3.92;77.37
84043;BME280;74129;52.540;13.416;2024-02-28T04:47:03;101232.61;;;4.00;77.23
84043;BME280;74129;52.540;13.416;2024-02-28T04:49:30;101237.98;;;4.10;77.17
84043;BME280;74129;52.540;13.416;2024-02-28T04:51:56;101239.91;;;4.17;76.93
84043;BME280;74129;52.540;13.416;2024-02-28T04:54:23;101240.14;;;4.19;76.86
84043;BME280;74129;52.540;13.416;2024-02-28T04:56:49;101238.40;;;4.25;76.87
84043;BME280;74129;52.540;13.416;2024-02-28T04:59:17;101233.45;;;4.26;76.76
84043;BME280;74129;52.540;13.416;2024-02-28T05:01:43;101237.85;;;4.29;76.62
84043;BME280;74129;52.540;13.416;2024-02-28T05:04:12;101239.63;;;4.32;76.35
84043;BME280;74129;52.540;13.416;2024-02-28T05:06:38;101242.08;;;4.31;75.76
84043;BME280;74129;52.540;13.416;2024-02-28T05:09:05;101248.41;;;4.28;75.76
84043;BME280;74129;52.540;13.416;2024-02-28T05:11:31;101247.88;;;4.27;75.41
84043;BME280;74129;52.540;13.416;2024-02-28T05:13:58;101251.30;;;4.24;75.51
84043;BME280;74129;52.540;13.416;2024-02-28T05:16:24;101255.09;;;4.19;75.38
84043;BME280;74129;52.540;13.416;2024-02-28T05:18:51;101259.99;;;4.17;75.53
84043;BME280;74129;52.540;13.416;2024-02-28T05:21:17;101259.29;;;4.14;75.45
84043;BME280;74129;52.540;13.416;2024-02-28T05:23:43;101270.59;;;4.14;75.22
84043;BME280;74129;52.540;13.416;2024-02-28T05:26:10;101272.84;;;4.10;75.10
84043;BME280;74129;52.540;13.416;2024-02-28T05:28:36;101267.80;;;4.10;75.12
84043;BME280;74129;52.540;13.416;2024-02-28T05:31:22;101270.33;;;4.12;75.09
84043;BME280;74129;52.540;13.416;2024-02-28T05:33:51;101267.95;;;4.13;75.06
84043;BME280;74129;52.540;13.416;2024-02-28T05:36:18;101268.90;;;4.14;74.83
84043;BME280;74129;52.540;13.416;2024-02-28T05:38:47;101271.61;;;4.15;74.94
84043;BME280;74129;52.540;13.416;2024-02-28T05:41:14;101274.52;;;4.15;74.98
84043;BME280;74129;52.540;13.416;2024-02-28T05:43:42;101271.13;;;4.17;74.92
84043;BME280;74129;52.540;13.416;2024-02-28T05:46:08;101269.95;;;4.18;74.84
84043;BME280;74129;52.540;13.416;2024-02-28T05:48:34;101274.02;;;4.18;74.83
84043;BME280;74129;52.540;13.416;2024-02-28T05:51:02;101279.86;;;4.19;74.89
84043;BME280;74129;52.540;13.416;2024-02-28T05:53:30;101282.00;;;4.19;74.72
84043;BME280;74129;52.540;13.416;2024-02-28T05:56:02;101291.02;;;4.20;74.90
84043;BME280;74129;52.540;13.416;2024-02-28T05:58:29;101293.05;;;4.18;74.87
84043;BME280;74129;52.540;13.416;2024-02-28T06:00:56;101294.16;;;4.19;75.03
84043;BME280;74129;52.540;13.416;2024-02-28T06:03:22;101294.39;;;4.21;74.86
84043;BME280;74129;52.540;13.416;2024-02-28T06:05:49;101300.05;;;4.23;74.56
84043;BME280;74129;52.540;13.416;2024-02-28T06:08:15;101299.45;;;4.25;74.71
84043;BME280;74129;52.540;13.416;2024-02-28T06:10:41;101305.84;;;4.25;74.70
84043;BME280;74129;52.540;13.416;2024-02-28T06:13:13;101314.40;;;4.20;74.68
84043;BME280;74129;52.540;13.416;2024-02-28T06:15:39;101324.67;;;4.19;74.56
84043;BME280;74129;52.540;13.416;2024-02-28T06:18:06;101330.98;;;4.18;74.47
84043;BME280;74129;52.540;13.416;2024-02-28T06:20:32;101330.38;;;4.19;74.38
84043;BME280;74129;52.540;13.416;2024-02-28T06:22:58;101330.59;;;4.20;74.49
84043;BME280;74129;52.540;13.416;2024-02-28T06:25:25;101336.34;;;4.17;74.40
84043;BME280;74129;52.540;13.416;2024-02-28T06:27:53;101332.06;;;4.14;74.38
84043;BME280;74129;52.540;13.416;2024-02-28T06:30:20;101338.95;;;4.16;74.72
84043;BME280;74129;52.540;13.416;2024-02-28T06:32:46;101344.32;;;4.16;74.51
84043;BME280;74129;52.540;13.416;2024-02-28T06:35:12;101339.81;;;4.16;74.62
84043;BME280;74129;52.540;13.416;2024-02-28T06:37:39;101343.79;;;4.17;74.72
84043;BME280;74129;52.540;13.416;2024-02-28T06:40:05;101345.98;;;4.15;74.71
84043;BME280;74129;52.540;13.416;2024-02-28T06:42:35;101346.27;;;4.14;74.90
84043;BME280;74129;52.540;13.416;2024-02-28T06:45:03;101348.90;;;4.10;74.87
84043;BME280;74129;52.540;13.416;2024-02-28T06:47:30;101349.41;;;4.06;74.99
84043;BME280;74129;52.540;13.416;2024-02-28T06:49:58;101343.64;;;4.06;74.93
84043;BME280;74129;52.540;13.416;2024-02-28T06:52:25;101345.83;;;4.09;75.08
84043;BME280;74129;52.540;13.416;2024-02-28T06:54:51;101355.48;;;4.12;74.88
84043;BME280;74129;52.540;13.416;2024-02-28T06:57:18;101359.90;;;4.11;75.05
84043;BME280;74129;52.540;13.416;2024-02-28T06:59:44;101360.55;;;4.06;75.15
84043;BME280;74129;52.540;13.416;2024-02-28T07:02:10;101363.47;;;4.01;74.92
84043;BME280;74129;52.540;13.416;2024-02-28T07:04:38;101358.98;;;4.00;75.20
84043;BME280;74129;52.540;13.416;2024-02-28T07:07:04;101363.80;;;4.03;75.19
84043;BME280;74129;52.540;13.416;2024-02-28T07:09:31;101365.51;;;4.01;75.27
84043;BME280;74129;52.540;13.416;2024-02-28T07:11:59;101367.73;;;4.01;75.26
84043;BME280;74129;52.540;13.416;2024-02-28T07:14:29;101373.39;;;4.04;75.28
84043;BME280;74129;52.540;13.416;2024-02-28T07:16:56;101373.34;;;4.02;75.46
84043;BME280;74129;52.540;13.416;2024-02-28T07:19:22;101365.92;;;4.01;75.31
84043;BME280;74129;52.540;13.416;2024-02-28T07:21:48;101373.52;;;3.99;75.21
84043;BME280;74129;52.540;13.416;2024-02-28T07:24:15;101372.66;;;4.00;75.58
84043;BME280;74129;52.540;13.416;2024-02-28T07:26:41;101373.56;;;3.98;75.22
84043;BME280;74129;52.540;13.416;2024-02-28T07:29:08;101371.12;;;3.95;75.23
84043;BME280;74129;52.540;13.416;2024-02-28T07:31:34;101367.36;;;3.93;75.56
84043;BME280;74129;52.540;13.416;2024-02-28T07:34:00;101365.05;;;3.90;75.27
84043;BME280;74129;52.540;13.416;2024-02-28T07:36:27;101369.25;;;3.88;75.47
84043;BME280;74129;52.540;13.416;2024-02-28T07:38:53;101369.67;;;3.89;75.36
84043;BME280;74129;52.540;13.416;2024-02-28T07:41:19;101367.23;;;3.93;75.46
84043;BME280;74129;52.540;13.416;2024-02-28T07:43:46;101373.88;;;3.97;75.23
84043;BME280;74129;52.540;13.416;2024-02-28T07:46:12;101368.27;;;3.98;75.18
84043;BME280;74129;52.540;13.416;2024-02-28T07:48:39;101374.02;;;3.99;75.10
84043;BME280;74129;52.540;13.416;2024-02-28T07:51:06;101380.82;;;3.96;75.00
84043;BME280;74129;52.540;13.416;2024-02-28T07:53:33;101383.83;;;3.92;74.98
84043;BME280;74129;52.540;13.416;2024-02-28T07:55:59;101391.83;;;3.94;75.22
84043;BME280;74129;52.540;13.416;2024-02-28T07:58:25;101397.62;;;3.96;74.66
84043;BME280;74129;52.540;13.416;2024-02-28T08:00:52;101399.64;;;3.97;74.50
84043;BME280;74129;52.540;13.416;2024-02-28T08:03:19;101403.77;;;3.94;74.34
84043;BME280;74129;52.540;13.416;2024-02-28T08:05:45;101404.33;;;3.91;74.70
84043;BME280;74129;52.540;13.416;2024-02-28T08:08:12;101402.55;;;3.94;74.83
84043;BME280;74129;52.540;13.416;2024-02-28T08:10:38;101404.17;;;3.96;74.48
84043;BME280;74129;52.540;13.416;2024-02-28T08:13:05;101409.20;;;3.96;74.30
84043;BME280;74129;52.540;13.416;2024-02-28T08:15:31;101408.67;;;3.95;74.34
84043;BME280;74129;52.540;13.416;2024-02-28T08:17:58;101405.22;;;3.94;74.37
84043;BME280;74129;52.540;13.416;2024-02-28T08:20:24;101411.24;;;3.95;74.20
84043;BME280;74129;52.540;13.416;2024-02-28T08:22:51;101417.36;;;3.93;74.41
84043;BME280;74129;52.540;13.416;2024-02-28T08:25:23;101422.55;;;3.91;74.34
84043;BME280;74129;52.540;13.416;2024-02-28T08:27:49;101429.39;;;3.91;74.35
84043;BME280;74129;52.540;13.416;2024-02-28T08:30:15;101437.52;;;3.89;74.03
84043;BME280;74129;52.540;13.416;2024-02-28T08:32:42;101437.70;;;3.87;73.88
84043;BME280;74129;52.540;13.416;2024-02-28T08:35:08;101437.52;;;3.83;73.81
84043;BME280;74129;52.540;13.416;2024-02-28T08:37:39;101437.25;;;3.83;73.54
84043;BME280;74129;52.540;13.416;2024-02-28T08:40:06;101435.59;;;3.85;73.70
84043;BME280;74129;52.540;13.416;2024-02-28T08:42:33;101440.98;;;3.87;73.41
84043;BME280;74129;52.540;13.416;2024-02-28T08:45:00;101437.80;;;3.89;73.41
84043;BME280;74129;52.540;13.416;2024-02-28T08:47:27;101440.11;;;3.87;73.32
84043;BME280;74129;52.540;13.416;2024-02-28T08:49:53;101443.30;;;3.86;73.29
84043;BME280;74129;52.540;13.416;2024-02-28T08:52:20;101440.58;;;3.83;72.85
84043;BME280;74129;52.540;13.416;2024-02-28T08:54:47;101436.91;;;3.81;73.03
84043;BME280;74129;52.540;13.416;2024-02-28T08:57:15;101437.59;;;3.80;73.13
84043;BME280;74129;52.540;13.416;2024-02-28T08:59:41;101440.70;;;3.84;73.22
84043;BME280;74129;52.540;13.416;2024-02-28T09:02:08;101436.83;;;3.86;73.44
84043;BME280;74129;52.540;13.416;2024-02-28T09:04:34;101437.45;;;3.90;73.30
84043;BME280;74129;52.540;13.416;2024-02-28T09:07:01;101431.38;;;3.93;73.27
84043;BME280;74129;52.540;13.416;2024-02-28T09:09:27;101427.33;;;3.96;73.11
84043;BME280;74129;52.540;13.416;2024-02-28T09:11:56;101432.98;;;3.99;72.78
84043;BME280;74129;52.540;13.416;2024-02-28T09:14:22;101439.19;;;3.96;72.64
84043;BME280;74129;52.540;13.416;2024-02-28T09:16:49;101436.77;;;3.93;72.21
84043;BME280;74129;52.540;13.416;2024-02-28T09:19:15;101433.80;;;3.91;71.99
84043;BME280;74129;52.540;13.416;2024-02-28T09:21:41;101434.80;;;3.87;71.97
84043;BME280;74129;52.540;13.416;2024-02-28T09:24:07;101438.90;;;3.85;72.34
84043;BME280;74129;52.540;13.416;2024-02-28T09:26:39;101440.66;;;3.88;72.18
84043;BME280;74129;52.540;13.416;2024-02-28T09:29:05;101439.54;;;3.90;72.13
84043;BME280;74129;52.540;13.416;2024-02-28T09:31:31;101444.16;;;3.86;71.84
84043;BME280;74129;52.540;13.416;2024-02-28T09:33:58;101450.94;;;3.80;71.73
84043;BME280;74129;52.540;13.416;2024-02-28T09:36:24;101446.38;;;3.75;71.98
84043;BME280;74129;52.540;13.416;2024-02-28T09:38:50;101449.47;;;3.72;71.99
84043;BME280;74129;52.540;13.416;2024-02-28T09:41:17;101449.44;;;3.69;71.97
84043;BME280;74129;52.540;13.416;2024-02-28T09:43:44;101449.84;;;3.69;72.18
84043;BME280;74129;52.540;13.416;2024-02-28T09:46:12;101455.68;;;3.67;72.13
84043;BME280;74129;52.540;13.416;2024-02-28T09:48:40;101456.55;;;3.61;72.23
84043;BME280;74129;52.540;13.416;2024-02-28T09:51:10;101460.47;;;3.57;72.33
84043;BME280;74129;52.540;13.416;2024-02-28T09:53:37;101466.23;;;3.53;72.17
84043;BME280;74129;52.540;13.416;2024-02-28T09:56:06;101461.94;;;3.52;72.67
84043;BME280;74129;52.540;13.416;2024-02-28T09:58:33;101467.64;;;3.55;72.60
84043;BME280;74129;52.540;13.416;2024-02-28T10:01:02;101470.41;;;3.53;72.36
84043;BME280;74129;52.540;13.416;2024-02-28T10:03:30;101470.81;;;3.49;72.51
84043;BME280;74129;52.540;13.416;2024-02-28T10:05:58;101472.70;;;3.50;72.90
84043;BME280;74129;52.540;13.416;2024-02-28T10:08:24;101479.06;;;3.54;72.98
84043;BME280;74129;52.540;13.416;2024-02-28T10:10:52;101477.60;;;3.59;72.91
84043;BME280;74129;52.540;13.416;2024-02-28T10:13:20;101486.45;;;3.60;72.71
84043;BME280;74129;52.540;13.416;2024-02-28T10:15:49;101482.80;;;3.58;72.53
84043;BME280;74129;52.540;13.416;2024-02-28T10:18:15;101483.88;;;3.57;72.42
84043;BME280;74129;52.540;13.416;2024-02-28T10:20:42;101488.56;;;3.55;72.75
84043;BME280;74129;52.540;13.416;2024-02-28T10:23:08;101494.45;;;3.55;72.66
84043;BME280;74129;52.540;13.416;2024-02-28T10:25:46;101494.73;;;3.55;72.47
84043;BME280;74129;52.540;13.416;2024-02-28T10:28:14;101496.09;;;3.56;72.42
84043;BME280;74129;52.540;13.416;2024-02-28T10:30:41;101499.12;;;3.58;72.48
84043;BME280;74129;52.540;13.416;2024-02-28T10:33:11;101496.27;;;3.61;72.52
84043;BME280;74129;52.540;13.416;2024-02-28T10:35:39;101503.05;;;3.66;72.54
84043;BME280;74129;52.540;13.416;2024-02-28T10:38:06;101505.84;;;3.66;72.03
84043;BME280;74129;52.540;13.416;2024-02-28T10:40:32;101506.39;;;3.64;72.17
84043;BME280;74129;52.540;13.416;2024-02-28T10:42:59;101505.85;;;3.63;72.12
84043;BME280;74129;52.540;13.416;2024-02-28T10:45:29;101504.34;;;3.64;72.20
84043;BME280;74129;52.540;13.416;2024-02-28T10:47:57;101505.69;;;3.60;72.18
84043;BME280;74129;52.540;13.416;2024-02-28T10:50:23;101504.73;;;3.59;72.39
84043;BME280;74129;52.540;13.416;2024-02-28T10:52:52;101504.25;;;3.58;71.92
84043;BME280;74129;52.540;13.416;2024-02-28T10:55:21;101506.77;;;3.61;71.93
84043;BME280;74129;52.540;13.416;2024-02-28T10:57:54;101510.66;;;3.58;71.89
84043;BME280;74129;52.540;13.416;2024-02-28T11:00:25;101517.40;;;3.57;72.15
84043;BME280;74129;52.540;13.416;2024-02-28T11:02:51;101513.14;;;3.61;71.99
84043;BME280;74129;52.540;13.416;2024-02-28T11:05:19;101511.48;;;3.67;71.99
84043;BME280;74129;52.540;13.416;2024-02-28T11:07:45;101512.17;;;3.68;71.62
84043;BME280;74129;52.540;13.416;2024-02-28T11:10:11;101514.49;;;3.63;71.19
84043;BME280;74129;52.540;13.416;2024-02-28T11:12:38;101518.25;;;3.63;71.78
84043;BME280;74129;52.540;13.416;2024-02-28T11:15:05;101518.06;;;3.71;71.59
84043;BME280;74129;52.540;13.416;2024-02-28T11:17:32;101517.77;;;3.74;71.07
84043;BME280;74129;52.540;13.416;2024-02-28T11:19:59;101518.84;;;3.74;71.06
84043;BME280;74129;52.540;13.416;2024-02-28T11:22:28;101521.83;;;3.72;71.11
84043;BME280;74129;52.540;13.416;2024-02-28T11:24:55;101516.85;;;3.69;71.20
84043;BME280;74129;52.540;13.416;2024-02-28T11:27:22;101510.41;;;3.68;71.07
84043;BME280;74129;52.540;13.416;2024-02-28T11:29:49;101505.52;;;3.74;70.97
84043;BME280;74129;52.540;13.416;2024-02-28T11:32:16;101511.25;;;3.80;71.29
84043;BME280;74129;52.540;13.416;2024-02-28T11:34:42;101512.39;;;3.88;70.83
84043;BME280;74129;52.540;13.416;2024-02-28T11:37:10;101517.95;;;3.93;70.60
84043;BME280;74129;52.540;13.416;2024-02-28T11:39:36;101518.13;;;3.95;70.25
84043;BME280;74129;52.540;13.416;2024-02-28T11:42:14;101517.11;;;3.96;70.22
84043;BME280;74129;52.540;13.416;2024-02-28T11:44:40;101509.98;;;4.03;70.17
84043;BME280;74129;52.540;13.416;2024-02-28T11:47:10;101514.16;;;4.16;69.99
84043;BME280;74129;52.540;13.416;2024-02-28T11:49:37;101514.94;;;4.20;69.18
84043;BME280;74129;52.540;13.416;2024-02-28T11:52:04;101520.64;;;4.20;68.91
84043;BME280;74129;52.540;13.416;2024-02-28T11:54:31;101520.42;;;4.21;68.55
84043;BME280;74129;52.540;13.416;2024-02-28T11:56:58;101527.05;;;4.24;68.80
84043;BME280;74129;52.540;13.416;2024-02-28T11:59:24;101529.39;;;4.23;68.25
84043;BME280;74129;52.540;13.416;2024-02-28T12:01:50;101528.39;;;4.22;68.51
84043;BME280;74129;52.540;13.416;2024-02-28T12:04:18;101540.00;;;4.28;68.19
84043;BME280;74129;52.540;13.416;2024-02-28T12:06:44;101535.55;;;4.32;68.00
84043;BME280;74129;52.540;13.416;2024-02-28T12:09:14;101529.09;;;4.31;67.54
84043;BME280;74129;52.540;13.416;2024-02-28T12:11:41;101529.09;;;4.35;67.86
84043;BME280;74129;52.540;13.416;2024-02-28T12:14:07;101528.77;;;4.42;67.45
84043;BME280;74129;52.540;13.416;2024-02-28T12:16:37;101522.13;;;4.45;67.68
84043;BME280;74129;52.540;13.416;2024-02-28T12:19:12;101526.54;;;4.48;67.27
84043;BME280;74129;52.540;13.416;2024-02-28T12:21:39;101527.30;;;4.50;66.92
84043;BME280;74129;52.540;13.416;2024-02-28T12:24:10;101531.92;;;4.50;67.07
84043;BME280;74129;52.540;13.416;2024-02-28T12:26:38;101525.58;;;4.54;66.82
84043;BME280;74129;52.540;13.416;2024-02-28T12:29:04;101520.27;;;4.58;67.02
84043;BME280;74129;52.540;13.416;2024-02-28T12:31:30;101519.70;;;4.63;66.53
84043;BME280;74129;52.540;13.416;2024-02-28T12:33:57;101516.31;;;4.66;66.24
84043;BME280;74129;52.540;13.416;2024-02-28T12:36:24;101520.08;;;4.69;66.14
84043;BME280;74129;52.540;13.416;2024-02-28T12:38:51;101523.13;;;4.76;66.03
84043;BME280;74129;52.540;13.416;2024-02-28T12:41:17;101524.52;;;4.82;66.16
84043;BME280;74129;52.540;13.416;2024-02-28T12:43:43;101526.17;;;4.90;65.46
84043;BME280;74129;52.540;13.416;2024-02-28T12:46:10;101524.14;;;4.85;63.55
84043;BME280;74129;52.540;13.416;2024-02-28T12:48:40;101527.58;;;4.74;63.80